Time;durP1;ratioP1;P1;durP2;ratioP2;P2;SDS_P1;SDS_P2;PMS_P1;PMS_P2;Temp;Humidity;BMP_temperature;BMP_pressure;BME280_temperature;BME280_humidity;BME280_pressure;Samples;Min_cycle;Max_cycle;Signal;HPM_P1;HPM_P2
2023/06/13 00:01:13;;;;;;;448.53;264.73;;;;;;;;;;4998485;28;20742;-63
2023/06/13 00:03:39;;;;;;;448.80;262.47;;;;;;;;;;4998899;28;20165;-63
2023/06/13 00:06:05;;;;;;;447.70;260.50;;;;;;;;;;4999194;28;20045;-63
2023/06/13 00:08:31;;;;;;;446.17;257.43;;;;;;;;;;4998077;28;20060;-63
2023/06/13 00:10:57;;;;;;;446.37;250.20;;;;;;;;;;4999080;28;20053;-62
2023/06/13 00:13:25;;;;;;;446.53;260.80;;;;;;;;;;4997118;28;20288;-62
2023/06/13 00:15:54;;;;;;;443.57;253.20;;;;;;;;;;4998669;28;20300;-63
2023/06/13 00:18:22;;;;;;;443.63;252.30;;;;;;;;;;4998577;28;20776;-63
2023/06/13 00:20:48;;;;;;;449.47;255.70;;;;;;;;;;4998393;28;20299;-63
2023/06/13 00:23:14;;;;;;;446.47;250.13;;;;;;;;;;4998467;28;20817;-63
2023/06/13 00:25:40;;;;;;;447.33;246.77;;;;;;;;;;5001072;28;20395;-63
2023/06/13 00:28:05;;;;;;;445.47;249.43;;;;;;;;;;5000534;28;20697;-63
2023/06/13 00:30:31;;;;;;;445.93;253.43;;;;;;;;;;4998308;28;20473;-63
2023/06/13 00:32:57;;;;;;;444.50;252.43;;;;;;;;;;5000359;28;20038;-62
2023/06/13 00:35:22;;;;;;;446.07;252.33;;;;;;;;;;4988628;28;20493;-62
2023/06/13 00:37:54;;;;;;;444.13;247.97;;;;;;;;;;4998810;28;20033;-63
2023/06/13 00:40:20;;;;;;;444.20;249.90;;;;;;;;;;4998717;28;20240;-62
2023/06/13 00:42:47;;;;;;;446.63;246.07;;;;;;;;;;4989487;28;20319;-62
2023/06/13 00:45:17;;;;;;;447.77;244.73;;;;;;;;;;4996961;28;20371;-62
2023/06/13 00:47:45;;;;;;;441.47;240.20;;;;;;;;;;5001931;28;20034;-64
2023/06/13 00:50:12;;;;;;;444.60;237.40;;;;;;;;;;4997794;28;20829;-64
2023/06/13 00:52:41;;;;;;;446.43;242.10;;;;;;;;;;4987737;28;20038;-62
2023/06/13 00:55:07;;;;;;;443.35;233.25;;;;;;;;;;4988643;28;20420;-62
2023/06/13 00:57:33;;;;;;;445.00;237.98;;;;;;;;;;4998731;28;20061;-62
2023/06/13 01:00:00;;;;;;;445.13;232.90;;;;;;;;;;4998778;28;20038;-64
2023/06/13 01:02:27;;;;;;;445.60;240.80;;;;;;;;;;4998241;28;20408;-62
2023/06/13 01:04:53;;;;;;;446.05;238.23;;;;;;;;;;4997899;28;20336;-63
2023/06/13 01:07:19;;;;;;;446.00;241.10;;;;;;;;;;4997389;28;20034;-63
2023/06/13 01:09:45;;;;;;;445.90;234.63;;;;;;;;;;4998802;28;20053;-63
2023/06/13 01:12:33;;;;;;;445.48;234.60;;;;;;;;;;4997893;28;20224;-62
2023/06/13 01:15:10;;;;;;;444.13;230.75;;;;;;;;;;5002080;28;20044;-62
2023/06/13 01:17:49;;;;;;;442.42;229.27;;;;;;;;;;4999198;28;20052;-62
2023/06/13 01:20:16;;;;;;;443.15;229.40;;;;;;;;;;4998510;28;20125;-62
2023/06/13 01:22:48;;;;;;;443.70;233.10;;;;;;;;;;4998086;28;20127;-62
2023/06/13 01:25:24;;;;;;;444.85;232.73;;;;;;;;;;4999035;28;20461;-62
2023/06/13 01:27:53;;;;;;;315.35;164.23;;;;;;;;;;4989566;28;20061;-62
2023/06/13 01:30:19;;;;;;;326.53;175.33;;;;;;;;;;4999332;28;20048;-62
2023/06/13 01:32:48;;;;;;;436.17;219.95;;;;;;;;;;4997514;28;20290;-62
2023/06/13 01:35:14;;;;;;;437.90;224.10;;;;;;;;;;4989077;28;20037;-62
2023/06/13 01:37:40;;;;;;;438.20;230.15;;;;;;;;;;4987890;28;20038;-62
2023/06/13 01:40:07;;;;;;;432.90;220.07;;;;;;;;;;5005693;28;20469;-62
2023/06/13 01:42:33;;;;;;;432.45;219.23;;;;;;;;;;4988748;28;20035;-62
2023/06/13 01:45:02;;;;;;;431.63;219.27;;;;;;;;;;4998582;28;20038;-61
2023/06/13 01:47:32;;;;;;;433.27;222.60;;;;;;;;;;5000399;28;20171;-62
2023/06/13 01:50:10;;;;;;;433.88;227.75;;;;;;;;;;5002179;28;20044;-62
2023/06/13 01:52:55;;;;;;;431.63;213.35;;;;;;;;;;4991497;28;20088;-62
2023/06/13 01:55:22;;;;;;;319.25;167.43;;;;;;;;;;5002194;28;20030;-62
2023/06/13 01:58:11;;;;;;;441.60;237.38;;;;;;;;;;5002679;28;20184;-62
2023/06/13 02:00:37;;;;;;;322.37;166.00;;;;;;;;;;4995679;28;20041;-63
2023/06/13 02:03:03;;;;;;;436.00;218.37;;;;;;;;;;5004363;28;20299;-63
2023/06/13 02:05:29;;;;;;;433.98;221.57;;;;;;;;;;5004865;28;20115;-62
2023/06/13 02:07:56;;;;;;;436.67;229.57;;;;;;;;;;5000208;28;20133;-63
2023/06/13 02:10:22;;;;;;;324.70;170.73;;;;;;;;;;5000859;28;20113;-64
2023/06/13 02:12:48;;;;;;;435.33;228.85;;;;;;;;;;5001517;28;20715;-62
2023/06/13 02:15:13;;;;;;;436.77;225.20;;;;;;;;;;5001717;28;20030;-62
2023/06/13 02:17:40;;;;;;;432.43;223.27;;;;;;;;;;5000276;28;20049;-62
2023/06/13 02:20:06;;;;;;;437.10;228.88;;;;;;;;;;5001991;28;20036;-63
2023/06/13 02:22:32;;;;;;;432.93;221.90;;;;;;;;;;5004858;28;20034;-67
2023/06/13 02:24:59;;;;;;;433.58;215.68;;;;;;;;;;5003477;28;20033;-66
2023/06/13 02:27:25;;;;;;;438.30;223.57;;;;;;;;;;5001694;28;20309;-66
2023/06/13 02:29:51;;;;;;;435.48;215.48;;;;;;;;;;5014704;28;20045;-66
2023/06/13 02:32:18;;;;;;;432.52;210.10;;;;;;;;;;4992482;28;20061;-66
2023/06/13 02:34:43;;;;;;;433.13;218.43;;;;;;;;;;4991869;28;20076;-66
2023/06/13 02:37:09;;;;;;;435.67;216.80;;;;;;;;;;4999488;28;20081;-66
2023/06/13 02:39:34;;;;;;;319.80;157.23;;;;;;;;;;5001026;28;20041;-65
2023/06/13 02:42:00;;;;;;;433.73;214.50;;;;;;;;;;5000931;28;20046;-66
2023/06/13 02:44:26;;;;;;;434.63;218.43;;;;;;;;;;4991989;28;20033;-66
2023/06/13 02:46:51;;;;;;;433.67;211.33;;;;;;;;;;5001162;28;20044;-66
2023/06/13 02:49:17;;;;;;;324.70;164.30;;;;;;;;;;4998432;28;20462;-66
2023/06/13 02:51:42;;;;;;;432.73;212.10;;;;;;;;;;5001831;28;20504;-65
2023/06/13 02:54:08;;;;;;;321.47;156.87;;;;;;;;;;5017147;28;20037;-66
2023/06/13 02:56:36;;;;;;;436.93;220.93;;;;;;;;;;5001151;28;20156;-66
2023/06/13 02:59:02;;;;;;;435.20;212.68;;;;;;;;;;5001758;28;20031;-66
2023/06/13 03:01:29;;;;;;;434.40;215.73;;;;;;;;;;4990211;28;20551;-64
2023/06/13 03:03:58;;;;;;;435.13;218.52;;;;;;;;;;4992353;28;20532;-64
2023/06/13 03:06:24;;;;;;;434.97;213.20;;;;;;;;;;5002437;28;20125;-64
2023/06/13 03:08:52;;;;;;;437.30;228.15;;;;;;;;;;4992469;28;20568;-65
2023/06/13 03:11:18;;;;;;;435.83;206.63;;;;;;;;;;4975335;28;20125;-65
2023/06/13 03:13:45;;;;;;;322.00;158.50;;;;;;;;;;5007560;28;20564;-68
2023/06/13 03:16:11;;;;;;;437.08;218.77;;;;;;;;;;5008483;28;20330;-66
2023/06/13 03:18:37;;;;;;;432.33;217.40;;;;;;;;;;5000377;28;20033;-66
2023/06/13 03:21:03;;;;;;;435.30;215.07;;;;;;;;;;5013451;28;20033;-67
2023/06/13 03:23:29;;;;;;;434.77;208.10;;;;;;;;;;4997766;28;20516;-66
2023/06/13 03:25:55;;;;;;;432.80;214.77;;;;;;;;;;4999104;28;20042;-61
2023/06/13 03:28:22;;;;;;;436.60;219.07;;;;;;;;;;5000565;28;20355;-65
2023/06/13 03:30:51;;;;;;;436.50;222.57;;;;;;;;;;5015173;28;20100;-62
2023/06/13 03:33:18;;;;;;;437.38;222.68;;;;;;;;;;4990089;28;20089;-63
2023/06/13 03:35:45;;;;;;;437.75;222.05;;;;;;;;;;5013831;28;20493;-62
2023/06/13 03:38:13;;;;;;;438.40;223.18;;;;;;;;;;5014255;28;20472;-62
2023/06/13 03:40:38;;;;;;;436.05;220.95;;;;;;;;;;5007001;28;20037;-62
2023/06/13 03:43:04;;;;;;;433.87;223.97;;;;;;;;;;4997746;28;20041;-62
2023/06/13 03:45:30;;;;;;;435.13;226.25;;;;;;;;;;4996237;28;20361;-62
2023/06/13 03:47:56;;;;;;;435.60;226.60;;;;;;;;;;4998511;28;20041;-62
2023/06/13 03:50:22;;;;;;;436.85;235.13;;;;;;;;;;4998049;28;20022;-61
2023/06/13 03:52:48;;;;;;;436.80;228.13;;;;;;;;;;4999026;28;20484;-62
2023/06/13 03:55:13;;;;;;;439.77;226.20;;;;;;;;;;4995426;28;20535;-62
2023/06/13 03:57:39;;;;;;;441.03;236.53;;;;;;;;;;4999311;28;20065;-62
2023/06/13 04:00:05;;;;;;;441.40;231.63;;;;;;;;;;4999600;28;20177;-63
2023/06/13 04:02:38;;;;;;;441.43;241.83;;;;;;;;;;4998025;28;20583;-62
2023/06/13 04:05:04;;;;;;;441.40;236.90;;;;;;;;;;4999061;28;20399;-62
2023/06/13 04:07:33;;;;;;;442.90;244.53;;;;;;;;;;4997677;28;20104;-63
2023/06/13 04:09:59;;;;;;;444.03;242.73;;;;;;;;;;5000004;28;20049;-62
2023/06/13 04:12:25;;;;;;;443.30;246.07;;;;;;;;;;5014897;28;20277;-64
2023/06/13 04:14:53;;;;;;;443.53;252.37;;;;;;;;;;4997641;28;20288;-62
2023/06/13 04:17:19;;;;;;;444.37;251.93;;;;;;;;;;4999575;28;21225;-62
2023/06/13 04:19:45;;;;;;;445.00;256.73;;;;;;;;;;4997846;28;20038;-62
2023/06/13 04:22:11;;;;;;;445.40;261.33;;;;;;;;;;4995026;28;20103;-62
2023/06/13 04:24:36;;;;;;;446.20;269.47;;;;;;;;;;4998095;28;20030;-62
2023/06/13 04:27:05;;;;;;;446.47;264.17;;;;;;;;;;5012848;28;20383;-62
2023/06/13 04:29:31;;;;;;;450.50;272.63;;;;;;;;;;4995737;28;20293;-62
2023/06/13 04:31:56;;;;;;;450.87;270.30;;;;;;;;;;4997920;28;20448;-63
2023/06/13 04:34:24;;;;;;;454.07;278.87;;;;;;;;;;4998515;28;20416;-63
2023/06/13 04:36:55;;;;;;;445.60;275.10;;;;;;;;;;4998908;28;20050;-63
2023/06/13 04:39:21;;;;;;;447.97;273.17;;;;;;;;;;5000046;28;20291;-63
2023/06/13 04:41:48;;;;;;;454.00;278.10;;;;;;;;;;4999710;28;20289;-63
2023/06/13 04:44:14;;;;;;;453.77;280.63;;;;;;;;;;4999437;28;20068;-63
2023/06/13 04:46:43;;;;;;;451.60;280.20;;;;;;;;;;4998633;28;20391;-63
2023/06/13 04:49:09;;;;;;;451.10;291.10;;;;;;;;;;4998403;28;20143;-64
2023/06/13 04:51:34;;;;;;;453.83;288.10;;;;;;;;;;4993578;28;20293;-63
2023/06/13 04:54:00;;;;;;;453.47;288.30;;;;;;;;;;4992904;28;20042;-64
2023/06/13 04:56:26;;;;;;;457.90;306.57;;;;;;;;;;4999080;28;20076;-63
2023/06/13 04:58:55;;;;;;;451.87;292.37;;;;;;;;;;4998889;28;20281;-63
2023/06/13 05:01:26;;;;;;;454.17;309.50;;;;;;;;;;4997958;28;20296;-65
2023/06/13 05:03:53;;;;;;;452.43;304.03;;;;;;;;;;5013793;28;20404;-65
2023/06/13 05:06:19;;;;;;;457.10;319.53;;;;;;;;;;4999429;28;20300;-66
2023/06/13 05:08:46;;;;;;;455.80;312.83;;;;;;;;;;4998141;28;20292;-62
2023/06/13 05:11:11;;;;;;;453.37;308.27;;;;;;;;;;4998672;28;20277;-61
2023/06/13 05:13:37;;;;;;;450.97;310.50;;;;;;;;;;4999296;28;20303;-62
2023/06/13 05:16:02;;;;;;;459.73;320.90;;;;;;;;;;4997987;28;20116;-62
2023/06/13 05:18:29;;;;;;;459.07;331.27;;;;;;;;;;4998371;28;20038;-62
2023/06/13 05:20:56;;;;;;;456.47;335.37;;;;;;;;;;4999089;28;20073;-62
2023/06/13 05:23:22;;;;;;;460.67;332.87;;;;;;;;;;5000263;28;20396;-62
2023/06/13 05:25:48;;;;;;;456.87;329.00;;;;;;;;;;5002453;28;20152;-62
2023/06/13 05:28:13;;;;;;;459.57;337.17;;;;;;;;;;5001549;28;20088;-62
2023/06/13 05:30:39;;;;;;;455.13;328.47;;;;;;;;;;5003756;28;20687;-62
2023/06/13 05:33:05;;;;;;;458.57;339.27;;;;;;;;;;5002432;28;20038;-62
2023/06/13 05:35:30;;;;;;;459.87;355.77;;;;;;;;;;5001478;28;20044;-62
2023/06/13 05:37:55;;;;;;;458.53;357.33;;;;;;;;;;5002654;28;20069;-62
2023/06/13 05:40:21;;;;;;;465.33;374.33;;;;;;;;;;5000971;28;20042;-62
2023/06/13 05:42:46;;;;;;;466.13;368.37;;;;;;;;;;5003813;28;20586;-62
2023/06/13 05:45:12;;;;;;;467.27;383.47;;;;;;;;;;5001095;28;20040;-62
2023/06/13 05:47:37;;;;;;;470.43;378.73;;;;;;;;;;5001593;28;20423;-63
2023/06/13 05:50:03;;;;;;;473.53;390.20;;;;;;;;;;5001373;28;20170;-62
2023/06/13 05:52:28;;;;;;;473.03;403.00;;;;;;;;;;5001897;28;20165;-62
2023/06/13 05:54:54;;;;;;;475.00;407.87;;;;;;;;;;5003014;28;20288;-62
2023/06/13 05:57:19;;;;;;;474.50;416.30;;;;;;;;;;5002612;28;20052;-62
2023/06/13 05:59:45;;;;;;;480.10;423.70;;;;;;;;;;5001307;28;20026;-62
2023/06/13 06:02:11;;;;;;;477.50;414.47;;;;;;;;;;5002551;28;20029;-62
2023/06/13 06:04:36;;;;;;;475.50;412.60;;;;;;;;;;5002766;28;20107;-62
2023/06/13 06:07:02;;;;;;;482.17;429.50;;;;;;;;;;5001268;28;20046;-62
2023/06/13 06:09:28;;;;;;;482.37;429.57;;;;;;;;;;5000814;28;20508;-62
2023/06/13 06:11:53;;;;;;;472.93;410.63;;;;;;;;;;5000947;28;20272;-63
2023/06/13 06:14:19;;;;;;;475.80;423.13;;;;;;;;;;5000324;28;20029;-63
2023/06/13 06:16:45;;;;;;;472.73;416.97;;;;;;;;;;5002063;28;20133;-64
2023/06/13 06:19:10;;;;;;;490.27;437.17;;;;;;;;;;5002193;28;20758;-64
2023/06/13 06:21:36;;;;;;;475.57;421.43;;;;;;;;;;5002661;28;20540;-64
2023/06/13 06:24:01;;;;;;;488.50;435.50;;;;;;;;;;5001053;28;20552;-64
2023/06/13 06:26:27;;;;;;;511.20;457.77;;;;;;;;;;5001606;28;20592;-65
2023/06/13 06:28:52;;;;;;;517.90;464.37;;;;;;;;;;5003155;28;20134;-63
2023/06/13 06:31:18;;;;;;;555.67;500.97;;;;;;;;;;5001512;28;20033;-63
2023/06/13 06:33:43;;;;;;;538.93;484.97;;;;;;;;;;5002337;28;20053;-61
2023/06/13 06:36:09;;;;;;;543.97;489.67;;;;;;;;;;4992348;28;20045;-62
2023/06/13 06:38:34;;;;;;;552.90;498.33;;;;;;;;;;5003239;28;20076;-63
2023/06/13 06:41:00;;;;;;;548.27;494.17;;;;;;;;;;5002225;28;20049;-62
2023/06/13 06:43:25;;;;;;;567.23;512.53;;;;;;;;;;5001774;28;20037;-62
2023/06/13 06:45:52;;;;;;;555.40;501.07;;;;;;;;;;5003026;28;20045;-62
2023/06/13 06:48:18;;;;;;;580.30;525.50;;;;;;;;;;5001501;28;21057;-61
2023/06/13 06:50:43;;;;;;;558.80;504.50;;;;;;;;;;5000405;28;20583;-61
2023/06/13 06:53:08;;;;;;;568.10;513.53;;;;;;;;;;5002685;28;20377;-60
2023/06/13 06:55:34;;;;;;;575.30;520.23;;;;;;;;;;5002120;28;20038;-61
2023/06/13 06:57:59;;;;;;;577.93;523.07;;;;;;;;;;5001569;28;20463;-61
2023/06/13 07:00:25;;;;;;;581.17;526.07;;;;;;;;;;5000645;28;20042;-62
2023/06/13 07:02:51;;;;;;;607.37;551.80;;;;;;;;;;5000110;28;20033;-63
2023/06/13 07:05:16;;;;;;;607.23;551.50;;;;;;;;;;5000369;28;20131;-61
2023/06/13 07:07:44;;;;;;;600.13;544.73;;;;;;;;;;4998483;28;20754;-61
2023/06/13 07:10:10;;;;;;;608.57;553.43;;;;;;;;;;5000315;28;20284;-61
2023/06/13 07:12:36;;;;;;;593.67;538.77;;;;;;;;;;5000898;28;20314;-61
2023/06/13 07:15:02;;;;;;;622.13;566.60;;;;;;;;;;4999496;28;20289;-61
2023/06/13 07:17:28;;;;;;;610.03;554.93;;;;;;;;;;4991223;28;20119;-62
2023/06/13 07:19:54;;;;;;;612.10;556.90;;;;;;;;;;5003056;28;20109;-61
2023/06/13 07:22:19;;;;;;;628.67;573.00;;;;;;;;;;5001042;28;20288;-61
2023/06/13 07:24:45;;;;;;;644.57;588.37;;;;;;;;;;4999405;28;20496;-61
2023/06/13 07:27:11;;;;;;;668.23;611.73;;;;;;;;;;5000066;28;20042;-61
2023/06/13 07:29:36;;;;;;;649.47;592.30;;;;;;;;;;4998304;28;20030;-62
2023/06/13 07:32:02;;;;;;;668.47;611.53;;;;;;;;;;4997968;28;20374;-62
2023/06/13 07:34:27;;;;;;;672.10;615.43;;;;;;;;;;4998422;28;20590;-61
2023/06/13 07:36:54;;;;;;;662.73;606.17;;;;;;;;;;4999594;28;20045;-61
2023/06/13 07:39:20;;;;;;;664.10;607.60;;;;;;;;;;4999559;28;20167;-62
2023/06/13 07:41:46;;;;;;;652.37;596.43;;;;;;;;;;4998982;28;20312;-62
2023/06/13 07:44:12;;;;;;;662.13;606.00;;;;;;;;;;5000701;28;20300;-61
2023/06/13 07:46:37;;;;;;;656.27;600.23;;;;;;;;;;4999947;28;20305;-62
2023/06/13 07:49:03;;;;;;;677.63;621.33;;;;;;;;;;5000059;28;20492;-61
2023/06/13 07:51:28;;;;;;;675.13;618.73;;;;;;;;;;4999343;28;20034;-61
2023/06/13 07:53:54;;;;;;;670.87;614.67;;;;;;;;;;4999398;28;20501;-62
2023/06/13 07:56:19;;;;;;;681.60;625.20;;;;;;;;;;4995720;28;20056;-62
2023/06/13 07:58:45;;;;;;;675.03;618.93;;;;;;;;;;5000645;28;20476;-61
2023/06/13 08:01:11;;;;;;;668.53;612.07;;;;;;;;;;5000438;28;20521;-64
2023/06/13 08:03:36;;;;;;;668.63;612.73;;;;;;;;;;5000226;28;20058;-61
2023/06/13 08:06:01;;;;;;;687.93;631.63;;;;;;;;;;4999637;28;20425;-62
2023/06/13 08:08:27;;;;;;;692.53;636.13;;;;;;;;;;4973167;28;20057;-61
2023/06/13 08:10:52;;;;;;;697.43;640.80;;;;;;;;;;4994097;28;20388;-61
2023/06/13 08:13:18;;;;;;;698.70;642.17;;;;;;;;;;4980732;28;20185;-61
2023/06/13 08:15:44;;;;;;;681.17;624.83;;;;;;;;;;4962492;28;20499;-62
2023/06/13 08:18:10;;;;;;;679.43;622.97;;;;;;;;;;4978717;28;20273;-62
2023/06/13 08:20:36;;;;;;;693.43;637.00;;;;;;;;;;4980224;28;20648;-62
2023/06/13 08:23:01;;;;;;;700.30;643.73;;;;;;;;;;4979052;28;20057;-63
2023/06/13 08:25:27;;;;;;;689.97;633.57;;;;;;;;;;4979575;28;20084;-63
2023/06/13 08:27:52;;;;;;;697.63;640.97;;;;;;;;;;4979671;28;20038;-62
2023/06/13 08:30:18;;;;;;;668.87;613.13;;;;;;;;;;4979291;28;20379;-62
2023/06/13 08:32:46;;;;;;;676.17;620.10;;;;;;;;;;4980303;28;20061;-62
2023/06/13 08:35:12;;;;;;;711.07;654.37;;;;;;;;;;4977679;28;20046;-62
2023/06/13 08:37:38;;;;;;;687.83;631.57;;;;;;;;;;4979790;28;20281;-62
2023/06/13 08:40:09;;;;;;;692.93;636.73;;;;;;;;;;4980517;28;20121;-62
2023/06/13 08:42:39;;;;;;;730.87;673.60;;;;;;;;;;4980007;28;20041;-62
2023/06/13 08:45:05;;;;;;;723.63;666.00;;;;;;;;;;4992952;28;20768;-63
2023/06/13 08:47:32;;;;;;;760.13;701.50;;;;;;;;;;4977684;28;20053;-63
2023/06/13 08:50:00;;;;;;;783.83;725.43;;;;;;;;;;4979277;28;20343;-62
2023/06/13 08:52:27;;;;;;;799.07;740.10;;;;;;;;;;4978791;28;20041;-62
2023/06/13 08:54:54;;;;;;;793.17;734.57;;;;;;;;;;4977456;28;20037;-61
2023/06/13 08:57:21;;;;;;;811.33;752.23;;;;;;;;;;4979655;28;20046;-63
2023/06/13 08:59:48;;;;;;;787.97;729.43;;;;;;;;;;4983215;28;20449;-63
2023/06/13 09:02:15;;;;;;;804.37;745.63;;;;;;;;;;4983160;28;20591;-61
2023/06/13 09:04:43;;;;;;;812.77;753.90;;;;;;;;;;4996707;28;20054;-61
2023/06/13 09:07:08;;;;;;;815.47;756.57;;;;;;;;;;5002141;28;20184;-61
2023/06/13 09:09:34;;;;;;;816.67;757.40;;;;;;;;;;5003376;28;20046;-62
2023/06/13 09:12:02;;;;;;;813.83;755.00;;;;;;;;;;5004650;28;20033;-62
2023/06/13 09:14:27;;;;;;;820.77;761.60;;;;;;;;;;5000421;28;20397;-62
2023/06/13 09:16:53;;;;;;;839.47;779.67;;;;;;;;;;5003754;28;20067;-62
2023/06/13 09:19:19;;;;;;;843.00;783.20;;;;;;;;;;5001529;28;20253;-62
2023/06/13 09:21:44;;;;;;;846.87;786.60;;;;;;;;;;5003739;28;20030;-64
2023/06/13 09:24:12;;;;;;;839.87;779.70;;;;;;;;;;5002409;28;20041;-61
2023/06/13 09:26:40;;;;;;;851.17;791.13;;;;;;;;;;5003158;28;20398;-63
2023/06/13 09:29:07;;;;;;;860.23;799.87;;;;;;;;;;5001716;28;20468;-63
2023/06/13 09:31:36;;;;;;;848.80;788.87;;;;;;;;;;5000708;28;20501;-63
2023/06/13 09:34:01;;;;;;;843.27;782.57;;;;;;;;;;5001329;28;20086;-63
2023/06/13 09:36:27;;;;;;;851.93;791.67;;;;;;;;;;5002818;28;20129;-62
2023/06/13 09:38:54;;;;;;;866.20;806.00;;;;;;;;;;5002418;28;20038;-62
2023/06/13 09:41:19;;;;;;;865.77;805.47;;;;;;;;;;5002099;28;20443;-62
2023/06/13 09:43:45;;;;;;;876.53;815.87;;;;;;;;;;5002416;28;20038;-61
2023/06/13 09:46:12;;;;;;;894.37;833.17;;;;;;;;;;5000502;28;20113;-63
2023/06/13 09:48:37;;;;;;;900.77;839.20;;;;;;;;;;5003101;28;20030;-61
2023/06/13 09:51:03;;;;;;;890.03;828.90;;;;;;;;;;5002064;28;20467;-63
2023/06/13 09:53:29;;;;;;;881.13;820.37;;;;;;;;;;5002201;28;20466;-63
2023/06/13 09:55:55;;;;;;;894.40;833.33;;;;;;;;;;5001245;28;20253;-64
2023/06/13 09:58:20;;;;;;;888.37;827.37;;;;;;;;;;5001348;28;20080;-63
2023/06/13 10:00:48;;;;;;;883.53;822.70;;;;;;;;;;5001865;28;20338;-67
2023/06/13 10:03:16;;;;;;;893.70;832.10;;;;;;;;;;5002747;28;20346;-62
2023/06/13 10:05:42;;;;;;;896.93;835.33;;;;;;;;;;5001572;28;20096;-63
2023/06/13 10:08:08;;;;;;;900.20;838.63;;;;;;;;;;4975597;28;20038;-63
2023/06/13 10:10:34;;;;;;;897.13;835.53;;;;;;;;;;5001866;28;20041;-63
2023/06/13 10:13:00;;;;;;;889.30;828.07;;;;;;;;;;5001649;28;20033;-63
2023/06/13 10:15:31;;;;;;;889.57;828.17;;;;;;;;;;5001669;28;20516;-62
2023/06/13 10:17:57;;;;;;;906.17;844.40;;;;;;;;;;5001894;28;20583;-62
2023/06/13 10:20:26;;;;;;;912.53;850.83;;;;;;;;;;5001069;28;20041;-62
2023/06/13 10:22:51;;;;;;;918.20;855.90;;;;;;;;;;5002165;28;20052;-63
2023/06/13 10:25:18;;;;;;;923.23;860.80;;;;;;;;;;5001554;28;20038;-61
2023/06/13 10:27:47;;;;;;;923.17;861.03;;;;;;;;;;5000365;28;20046;-61
2023/06/13 10:30:19;;;;;;;905.77;844.17;;;;;;;;;;5000992;28;20038;-61
2023/06/13 10:32:48;;;;;;;924.13;862.10;;;;;;;;;;5001919;28;20469;-62
2023/06/13 10:35:30;;;;;;;921.43;859.33;;;;;;;;;;5000358;28;20034;-64
2023/06/13 10:38:05;;;;;;;911.27;849.73;;;;;;;;;;4999842;28;20088;-65
2023/06/13 10:40:58;;;;;;;904.80;843.40;;;;;;;;;;5001786;28;20030;-65
2023/06/13 10:43:33;;;;;;;903.73;842.20;;;;;;;;;;5000541;28;20084;-61
2023/06/13 10:46:02;;;;;;;904.50;843.23;;;;;;;;;;4999916;28;20148;-61
2023/06/13 10:48:35;;;;;;;914.67;853.07;;;;;;;;;;5000852;28;20136;-60
2023/06/13 10:51:00;;;;;;;899.43;838.33;;;;;;;;;;5000825;28;20034;-60
2023/06/13 10:53:30;;;;;;;894.83;834.03;;;;;;;;;;4999458;28;20038;-62
2023/06/13 10:56:00;;;;;;;903.60;842.27;;;;;;;;;;5001328;28;20073;-61
2023/06/13 10:58:26;;;;;;;905.90;844.27;;;;;;;;;;5000597;28;20041;-59
2023/06/13 11:00:51;;;;;;;903.90;842.77;;;;;;;;;;4999534;28;20038;-63
2023/06/13 11:03:16;;;;;;;920.53;858.63;;;;;;;;;;4999955;28;20803;-62
2023/06/13 11:05:51;;;;;;;926.10;864.43;;;;;;;;;;4984022;28;20496;-63
2023/06/13 11:08:21;;;;;;;921.65;860.03;;;;;;;;;;5000703;28;20044;-63
2023/06/13 11:10:47;;;;;;;942.23;879.77;;;;;;;;;;4998441;28;20050;-62
2023/06/13 11:13:20;;;;;;;948.57;885.27;;;;;;;;;;4999504;28;20650;-62
2023/06/13 11:15:46;;;;;;;934.70;872.83;;;;;;;;;;4998999;28;20120;-65
2023/06/13 11:18:13;;;;;;;944.37;882.10;;;;;;;;;;5000631;28;20396;-60
2023/06/13 11:20:51;;;;;;;925.07;863.40;;;;;;;;;;4999532;28;20029;-61
2023/06/13 11:23:18;;;;;;;920.13;858.57;;;;;;;;;;5001482;28;20128;-60
2023/06/13 11:25:48;;;;;;;892.97;832.30;;;;;;;;;;4999532;28;20500;-60
2023/06/13 11:28:17;;;;;;;903.90;843.10;;;;;;;;;;5001434;28;20136;-60
2023/06/13 11:30:44;;;;;;;910.60;849.40;;;;;;;;;;5000316;28;20041;-61
2023/06/13 11:33:10;;;;;;;922.27;860.70;;;;;;;;;;5000011;28;20037;-62
2023/06/13 11:35:37;;;;;;;926.30;864.70;;;;;;;;;;4999498;28;20525;-62
2023/06/13 11:38:05;;;;;;;924.20;862.63;;;;;;;;;;5000247;28;20614;-63
2023/06/13 11:40:32;;;;;;;936.47;874.27;;;;;;;;;;5000348;28;20038;-61
2023/06/13 11:42:58;;;;;;;940.83;878.77;;;;;;;;;;4999903;28;20715;-61
2023/06/13 11:45:23;;;;;;;935.10;872.83;;;;;;;;;;4999783;28;20053;-61
2023/06/13 11:47:58;;;;;;;944.30;881.93;;;;;;;;;;4999762;28;20045;-62
2023/06/13 11:50:27;;;;;;;946.40;884.13;;;;;;;;;;4999105;28;20040;-61
2023/06/13 11:53:05;;;;;;;953.47;890.73;;;;;;;;;;5000237;28;20332;-61
2023/06/13 11:55:31;;;;;;;963.77;900.83;;;;;;;;;;4998441;28;20405;-61
2023/06/13 11:57:56;;;;;;;953.47;891.03;;;;;;;;;;4999934;28;20014;-61
2023/06/13 12:00:26;;;;;;;946.20;883.83;;;;;;;;;;4999185;28;20041;-63
2023/06/13 12:02:51;;;;;;;943.70;881.00;;;;;;;;;;4999722;28;20466;-62
2023/06/13 12:05:17;;;;;;;937.93;874.63;;;;;;;;;;4999789;28;20141;-64
2023/06/13 12:07:45;;;;;;;949.80;886.60;;;;;;;;;;4999096;28;20571;-61
2023/06/13 12:10:11;;;;;;;958.37;895.67;;;;;;;;;;4999694;28;20041;-62
2023/06/13 12:12:36;;;;;;;956.63;893.87;;;;;;;;;;5000542;28;20033;-63
2023/06/13 12:15:02;;;;;;;941.23;879.37;;;;;;;;;;4998474;28;20041;-64
2023/06/13 12:17:28;;;;;;;950.67;888.27;;;;;;;;;;4997352;28;20099;-63
2023/06/13 12:20:07;;;;;;;941.27;879.43;;;;;;;;;;4981380;28;20078;-63
2023/06/13 12:22:32;;;;;;;942.23;879.97;;;;;;;;;;4998816;28;20137;-63
2023/06/13 12:24:58;;;;;;;952.67;890.67;;;;;;;;;;4999903;28;20044;-63
2023/06/13 12:27:25;;;;;;;955.40;892.97;;;;;;;;;;4998057;28;20077;-62
2023/06/13 12:29:51;;;;;;;957.97;895.87;;;;;;;;;;4997777;28;20042;-63
2023/06/13 12:32:16;;;;;;;962.83;899.93;;;;;;;;;;4982124;28;20037;-62
2023/06/13 12:34:43;;;;;;;956.10;893.30;;;;;;;;;;4997709;28;20052;-63
2023/06/13 12:37:11;;;;;;;970.93;908.20;;;;;;;;;;4998393;28;20413;-63
2023/06/13 12:39:37;;;;;;;961.50;898.63;;;;;;;;;;5000144;28;20037;-63
2023/06/13 12:42:04;;;;;;;975.47;912.27;;;;;;;;;;5000290;28;20293;-63
2023/06/13 12:44:31;;;;;;;977.27;913.90;;;;;;;;;;4998777;28;20034;-63
2023/06/13 12:46:59;;;;;;;986.57;922.77;;;;;;;;;;5000059;28;20133;-61
2023/06/13 12:49:24;;;;;;;979.07;915.87;;;;;;;;;;4997719;28;20124;-63
2023/06/13 12:51:52;;;;;;;989.17;925.27;;;;;;;;;;4998114;28;20560;-65
2023/06/13 12:54:23;;;;;;;1000.97;936.33;;;;;;;;;;4998766;28;20043;-65
2023/06/13 12:56:51;;;;;;;996.53;932.00;;;;;;;;;;4998839;28;20029;-64
2023/06/13 12:59:16;;;;;;;1011.53;945.87;;;;;;;;;;4998152;28;20077;-62
2023/06/13 13:01:42;;;;;;;1017.13;951.37;;;;;;;;;;4998719;28;20508;-62
2023/06/13 13:04:09;;;;;;;1009.73;944.30;;;;;;;;;;4998076;28;20416;-60
2023/06/13 13:06:35;;;;;;;1011.17;945.73;;;;;;;;;;4998378;28;20034;-61
2023/06/13 13:09:00;;;;;;;1014.20;948.57;;;;;;;;;;4999380;28;20033;-61
2023/06/13 13:11:26;;;;;;;1005.33;939.97;;;;;;;;;;5000243;28;20060;-62
2023/06/13 13:13:52;;;;;;;989.80;925.07;;;;;;;;;;4998501;28;20061;-61
2023/06/13 13:16:17;;;;;;;1011.47;945.67;;;;;;;;;;4997791;28;20069;-61
2023/06/13 13:18:43;;;;;;;1010.43;944.67;;;;;;;;;;5000359;28;20527;-62
2023/06/13 13:21:08;;;;;;;1027.00;960.73;;;;;;;;;;4998617;28;20692;-63
2023/06/13 13:23:34;;;;;;;1016.63;950.73;;;;;;;;;;5000123;28;20132;-62
2023/06/13 13:26:00;;;;;;;1023.60;957.40;;;;;;;;;;4997454;28;20528;-62
2023/06/13 13:28:26;;;;;;;1028.10;961.63;;;;;;;;;;4981428;28;20046;-61
2023/06/13 13:30:51;;;;;;;1037.77;970.57;;;;;;;;;;5000050;28;20123;-61
2023/06/13 13:33:22;;;;;;;1042.37;974.83;;;;;;;;;;5000761;28;20461;-61
2023/06/13 13:35:47;;;;;;;1032.10;965.17;;;;;;;;;;4999352;28;20105;-61
2023/06/13 13:38:13;;;;;;;1024.07;957.47;;;;;;;;;;4999892;28;20050;-61
2023/06/13 13:40:38;;;;;;;1027.63;961.07;;;;;;;;;;5000305;28;20034;-61
2023/06/13 13:43:03;;;;;;;1029.10;962.30;;;;;;;;;;4999661;28;20061;-61
2023/06/13 13:45:29;;;;;;;1021.43;955.27;;;;;;;;;;5002429;28;20477;-63
2023/06/13 13:47:55;;;;;;;1023.30;956.63;;;;;;;;;;5002862;28;20484;-63
2023/06/13 13:50:21;;;;;;;1029.53;962.53;;;;;;;;;;4996640;28;20044;-63